Time;durP1;ratioP1;P1;durP2;ratioP2;P2;SDS_P1;SDS_P2;PMS_P1;PMS_P2;Temp;Humidity;BMP_temperature;BMP_pressure;BME280_temperature;BME280_humidity;BME280_pressure;Samples;Min_cycle;Max_cycle;Signal;HPM_P1;HPM_P2
2023/05/29 00:02:22;;;;;;;12.45;4.35;;;;;;;17.39;75.91;100987.19;8351225;28;20033;-60
2023/05/29 00:06:24;;;;;;;15.10;5.05;;;;;;;17.49;75.70;100987.88;8351818;28;20048;-60
2023/05/29 00:10:24;;;;;;;15.35;4.25;;;;;;;17.41;75.98;100990.56;8348608;28;20052;-59
2023/05/29 00:14:25;;;;;;;8.90;4.15;;;;;;;17.40;75.67;100988.88;8350648;28;20041;-59
2023/05/29 00:18:25;;;;;;;7.97;3.67;;;;;;;17.35;75.69;100997.59;8351476;28;20045;-60
2023/05/29 00:22:26;;;;;;;7.88;3.70;;;;;;;17.26;76.21;101011.47;8351296;28;20084;-60
2023/05/29 00:26:26;;;;;;;12.65;4.63;;;;;;;17.26;76.01;101014.19;8351447;28;20045;-61
2023/05/29 00:30:29;;;;;;;9.23;4.10;;;;;;;17.12;76.12;101007.53;8348861;28;20033;-61
2023/05/29 00:34:29;;;;;;;9.90;3.80;;;;;;;17.00;76.08;101002.56;8351033;28;20128;-61
2023/05/29 00:38:29;;;;;;;7.75;3.78;;;;;;;16.94;76.48;101008.69;8351501;28;20060;-60
2023/05/29 00:42:30;;;;;;;10.10;4.20;;;;;;;16.89;76.96;101000.16;8350801;28;20041;-60
2023/05/29 00:46:31;;;;;;;10.43;3.85;;;;;;;16.89;77.27;101000.16;8351335;28;20072;-61
2023/05/29 00:50:33;;;;;;;7.47;4.75;;;;;;;16.36;79.03;100996.94;8356974;28;20036;-61
2023/05/29 00:54:34;;;;;;;8.60;3.95;;;;;;;16.48;77.92;101003.84;8353942;28;20388;-61
2023/05/29 00:58:34;;;;;;;11.02;4.22;;;;;;;16.39;77.34;101000.22;8357462;28;20033;-61
2023/05/29 01:02:37;;;;;;;9.18;4.30;;;;;;;16.36;77.22;100995.09;8355922;28;20124;-61
2023/05/29 01:06:39;;;;;;;11.15;3.88;;;;;;;16.32;77.10;101001.91;8356555;28;20045;-61
2023/05/29 01:10:43;;;;;;;13.57;3.70;;;;;;;16.20;77.20;100994.16;8356786;28;20057;-61
2023/05/29 01:19:28;;;;;;;10.25;4.18;;;;;;;16.12;76.49;101015.94;8414318;27;20385;-61
2023/05/29 01:23:51;;;;;;;8.48;4.05;;;;;;;16.08;75.96;101020.03;8410140;28;20036;-61
2023/05/29 01:27:54;;;;;;;8.02;3.67;;;;;;;16.08;75.65;101003.66;8411918;28;20064;-61
2023/05/29 01:31:57;;;;;;;9.45;3.47;;;;;;;16.03;75.19;101011.47;8413535;28;20505;-61
2023/05/29 01:35:58;;;;;;;8.98;3.60;;;;;;;15.95;75.46;101019.63;8396066;28;20043;-61
2023/05/29 01:39:59;;;;;;;5.82;3.67;;;;;;;15.91;74.97;101034.59;8413657;28;20040;-61
2023/05/29 01:44:04;;;;;;;9.73;4.18;;;;;;;15.86;74.81;101021.47;8412815;28;20065;-61
2023/05/29 01:48:06;;;;;;;11.10;4.13;;;;;;;15.84;74.84;101028.94;8410935;28;20052;-61
2023/05/29 01:52:09;;;;;;;10.32;4.50;;;;;;;15.84;74.34;101044.44;8415452;28;20043;-61
2023/05/29 01:56:10;;;;;;;16.58;4.28;;;;;;;15.80;74.32;101037.63;8415067;28;20036;-61
2023/05/29 02:00:11;;;;;;;9.60;4.45;;;;;;;15.77;74.07;101042.34;8415381;28;20514;-61
2023/05/29 02:04:27;;;;;;;7.95;4.10;;;;;;;15.81;73.73;101042.03;8354908;27;20525;-58
2023/05/29 02:08:28;;;;;;;9.77;3.70;;;;;;;15.73;73.63;101031.94;8379408;28;20116;-58
2023/05/29 02:12:28;;;;;;;7.22;3.40;;;;;;;15.66;74.28;101048.09;8382708;28;20040;-58
2023/05/29 02:16:29;;;;;;;9.40;3.78;;;;;;;15.60;74.57;101046.00;8381728;28;20036;-58
2023/05/29 02:20:30;;;;;;;9.95;4.25;;;;;;;15.57;74.68;101054.50;8382007;28;20102;-58
2023/05/29 02:24:30;;;;;;;9.45;3.35;;;;;;;15.61;74.84;101071.38;8380382;28;20536;-60
2023/05/29 02:28:31;;;;;;;6.78;3.90;;;;;;;15.50;75.71;101068.94;8381927;28;20048;-60
2023/05/29 02:32:31;;;;;;;7.95;3.78;;;;;;;15.44;75.90;101072.28;8380629;28;20045;-59
2023/05/29 02:36:32;;;;;;;9.02;3.78;;;;;;;15.35;76.42;101076.78;8381609;28;20491;-60
2023/05/29 02:40:32;;;;;;;7.35;3.53;;;;;;;15.31;76.88;101075.38;8381192;28;20041;-61
2023/05/29 02:44:33;;;;;;;9.35;4.10;;;;;;;15.28;77.06;101070.25;8381653;28;20045;-62
2023/05/29 02:48:33;;;;;;;11.00;3.95;;;;;;;15.28;77.61;101086.59;8381558;28;20564;-62
2023/05/29 02:52:34;;;;;;;9.10;3.78;;;;;;;15.24;78.16;101077.03;8381629;28;20123;-63
2023/05/29 02:56:35;;;;;;;10.32;4.10;;;;;;;15.15;78.62;101085.25;8378421;28;20037;-63
2023/05/29 03:00:36;;;;;;;9.18;3.72;;;;;;;15.09;78.89;101092.19;8380605;28;20094;-63
2023/05/29 03:04:36;;;;;;;12.05;3.92;;;;;;;15.00;79.42;101082.25;8379905;28;20037;-63
2023/05/29 03:08:40;;;;;;;11.73;4.03;;;;;;;14.90;79.93;101084.19;8378442;28;20032;-61
2023/05/29 03:12:41;;;;;;;8.50;3.75;;;;;;;14.87;80.12;101083.63;8372641;28;20047;-61
2023/05/29 03:16:43;;;;;;;13.02;3.72;;;;;;;14.74;80.46;101081.31;8339900;28;20437;-61
2023/05/29 03:20:44;;;;;;;10.90;3.42;;;;;;;14.64;80.94;101095.97;8325609;28;20038;-61
2023/05/29 03:24:45;;;;;;;9.30;3.80;;;;;;;14.56;80.92;101083.13;8324743;28;20159;-61
2023/05/29 03:28:47;;;;;;;10.25;3.90;;;;;;;14.57;81.04;101098.44;8324607;28;20072;-61
2023/05/29 03:32:48;;;;;;;10.38;3.17;;;;;;;14.48;81.25;101102.06;8324479;28;20045;-61
2023/05/29 03:36:49;;;;;;;13.07;4.05;;;;;;;14.43;81.66;101098.97;8323695;28;20526;-61
2023/05/29 03:40:49;;;;;;;15.35;3.50;;;;;;;14.43;81.83;101103.53;8322751;28;20086;-61
2023/05/29 03:44:50;;;;;;;10.52;3.60;;;;;;;14.32;81.89;101107.31;8324805;28;20045;-61
2023/05/29 03:48:50;;;;;;;15.52;3.97;;;;;;;14.35;81.89;101107.00;8323905;28;20037;-61
2023/05/29 03:52:51;;;;;;;9.88;3.45;;;;;;;14.36;81.88;101106.00;8339690;28;20045;-61
2023/05/29 03:56:51;;;;;;;16.98;4.00;;;;;;;14.26;82.27;101105.19;8324736;28;20065;-61
2023/05/29 04:00:52;;;;;;;14.73;3.70;;;;;;;14.21;82.49;101112.91;8315986;28;20076;-61
2023/05/29 04:04:55;;;;;;;11.73;3.55;;;;;;;14.21;82.54;101115.63;8313741;28;20045;-61
2023/05/29 04:08:56;;;;;;;11.93;3.50;;;;;;;14.18;82.33;101110.47;8323941;28;20037;-61
2023/05/29 04:12:56;;;;;;;13.18;3.67;;;;;;;14.16;82.94;101119.78;8312987;28;20274;-61
2023/05/29 04:16:57;;;;;;;16.13;4.25;;;;;;;14.29;82.19;101133.94;8310916;28;20084;-61
2023/05/29 04:20:58;;;;;;;13.45;3.65;;;;;;;14.21;82.28;101121.06;8303480;28;20480;-61
2023/05/29 04:24:58;;;;;;;12.77;3.30;;;;;;;14.32;81.95;101134.50;8306161;28;20136;-61
2023/05/29 04:28:59;;;;;;;16.50;3.55;;;;;;;14.34;81.61;101132.50;8289941;28;20061;-61
2023/05/29 04:33:00;;;;;;;16.55;3.42;;;;;;;14.41;81.29;101144.50;8290460;28;20073;-61
2023/05/29 04:37:02;;;;;;;17.08;3.80;;;;;;;14.58;80.85;101151.00;8289555;28;20450;-61
2023/05/29 04:41:03;;;;;;;11.70;3.63;;;;;;;14.56;80.57;101153.88;8296997;28;20097;-61
2023/05/29 04:45:05;;;;;;;8.93;3.20;;;;;;;14.65;80.18;101155.69;8321549;28;20033;-61
2023/05/29 04:49:09;;;;;;;13.38;4.18;;;;;;;14.69;80.49;101154.38;8323200;28;20033;-61
2023/05/29 04:53:10;;;;;;;14.75;4.05;;;;;;;14.71;79.77;101163.25;8322646;28;20110;-61
2023/05/29 04:57:11;;;;;;;14.57;3.55;;;;;;;14.70;79.85;101161.53;8322741;28;20124;-61
2023/05/29 05:01:14;;;;;;;17.05;4.05;;;;;;;14.70;79.62;101160.69;8318717;28;20537;-61
2023/05/29 05:05:15;;;;;;;12.05;3.42;;;;;;;14.74;79.51;101156.66;8321681;28;20120;-60
2023/05/29 05:09:17;;;;;;;16.48;4.10;;;;;;;14.84;79.12;101169.19;8322670;28;20037;-61
2023/05/29 05:13:17;;;;;;;22.48;3.75;;;;;;;14.93;78.67;101168.28;8323619;28;20037;-61
2023/05/29 05:17:18;;;;;;;19.58;3.90;;;;;;;14.98;78.58;101171.38;8323707;28;20091;-61
2023/05/29 05:21:18;;;;;;;23.52;4.65;;;;;;;15.19;77.63;101169.25;8323743;28;20416;-61
2023/05/29 05:25:20;;;;;;;16.48;3.55;;;;;;;15.16;77.25;101175.00;8322906;28;20044;-61
2023/05/29 05:29:20;;;;;;;25.83;4.65;;;;;;;15.15;77.25;101189.63;8322243;28;20041;-61
2023/05/29 05:33:21;;;;;;;21.27;4.10;;;;;;;15.26;76.86;101189.44;8319703;28;20033;-60
2023/05/29 05:37:23;;;;;;;14.77;3.58;;;;;;;15.46;76.78;101187.44;8322570;28;20045;-61
2023/05/29 05:41:24;;;;;;;10.75;3.80;;;;;;;15.50;75.35;101189.69;8321301;28;20053;-61
2023/05/29 05:45:26;;;;;;;14.25;3.63;;;;;;;15.57;76.10;101198.09;8320228;28;21665;-62
2023/05/29 05:49:26;;;;;;;20.90;4.35;;;;;;;15.91;75.01;101193.63;8290807;28;20065;-61
2023/05/29 05:53:28;;;;;;;16.88;3.83;;;;;;;15.84;74.59;101191.69;8313058;28;20465;-62
2023/05/29 05:57:28;;;;;;;17.20;3.63;;;;;;;15.88;74.40;101201.25;8323306;28;20123;-62
2023/05/29 06:01:30;;;;;;;15.35;3.40;;;;;;;15.95;74.02;101199.63;8320147;28;20072;-61
2023/05/29 06:05:30;;;;;;;14.75;4.00;;;;;;;16.03;73.57;101202.41;8322656;28;20040;-62
2023/05/29 06:09:31;;;;;;;26.38;4.78;;;;;;;15.92;73.99;101191.78;8324748;28;20042;-62
2023/05/29 06:13:31;;;;;;;17.05;4.20;;;;;;;16.33;73.23;101204.69;8348381;28;20408;-62
2023/05/29 06:17:39;;;;;;;19.00;3.55;;;;;;;16.43;72.14;101205.41;8353680;28;20037;-62
2023/05/29 06:21:40;;;;;;;21.05;4.22;;;;;;;16.68;72.11;101210.06;8333183;28;20041;-62
2023/05/29 06:25:41;;;;;;;14.23;3.47;;;;;;;16.87;71.15;101210.63;8355011;28;20049;-62
2023/05/29 06:29:42;;;;;;;17.52;3.95;;;;;;;16.81;71.00;101210.44;8375795;28;20037;-62
2023/05/29 06:33:42;;;;;;;12.30;2.97;;;;;;;16.93;70.70;101220.06;8320775;28;20084;-62
2023/05/29 06:37:45;;;;;;;12.60;3.72;;;;;;;17.08;70.18;101215.69;8322048;28;20042;-62
2023/05/29 06:41:46;;;;;;;18.45;3.58;;;;;;;17.26;69.95;101221.91;8322195;28;20423;-62
2023/05/29 06:45:51;;;;;;;16.05;3.50;;;;;;;17.41;69.90;101218.34;8321867;28;20049;-61
2023/05/29 06:49:52;;;;;;;20.48;3.95;;;;;;;17.18;69.75;101202.75;8324834;28;20041;-61
2023/05/29 06:53:53;;;;;;;13.27;3.63;;;;;;;17.19;69.49;101207.16;8354350;28;20047;-62
2023/05/29 06:57:54;;;;;;;17.30;4.10;;;;;;;17.34;69.55;101202.78;8379627;28;20466;-62
2023/05/29 07:01:56;;;;;;;14.88;3.60;;;;;;;17.58;68.99;101208.31;8361718;28;20041;-62
2023/05/29 07:05:57;;;;;;;15.15;3.70;;;;;;;18.09;68.64;101215.34;8327257;28;20052;-62
2023/05/29 07:09:57;;;;;;;12.15;3.85;;;;;;;17.91;67.48;101212.81;8354551;28;20048;-62
2023/05/29 07:13:58;;;;;;;10.40;3.95;;;;;;;17.94;68.34;101217.94;8358885;28;20581;-62
2023/05/29 07:18:00;;;;;;;14.23;3.90;;;;;;;18.03;67.18;101211.44;8360028;28;20120;-61
2023/05/29 07:22:02;;;;;;;16.15;3.78;;;;;;;18.27;67.59;101225.06;8360156;28;20523;-62
2023/05/29 07:26:03;;;;;;;11.65;3.28;;;;;;;18.49;66.88;101213.47;8359210;28;20385;-61
2023/05/29 07:30:05;;;;;;;17.95;3.38;;;;;;;18.31;66.97;101215.50;8359223;28;20112;-61
2023/05/29 07:34:06;;;;;;;15.82;4.00;;;;;;;18.49;67.44;101218.06;8347296;28;20042;-62
2023/05/29 07:38:07;;;;;;;13.93;3.83;;;;;;;18.66;66.42;101215.13;8345947;28;20499;-62
2023/05/29 07:42:08;;;;;;;16.10;3.90;;;;;;;18.89;65.95;101209.72;8357549;28;20634;-61
2023/05/29 07:46:11;;;;;;;11.85;3.80;;;;;;;18.72;66.22;101229.97;8320915;28;20038;-62
2023/05/29 07:50:15;;;;;;;16.60;4.15;;;;;;;19.35;67.33;101228.03;8304481;28;20042;-60
2023/05/29 07:54:18;;;;;;;18.45;4.40;;;;;;;19.06;65.65;101223.19;8321470;28;20038;-59
2023/05/29 07:58:20;;;;;;;15.60;3.80;;;;;;;19.29;65.17;101218.66;8319464;28;20068;-60
2023/05/29 08:02:21;;;;;;;12.00;3.60;;;;;;;19.30;64.65;101220.34;8336607;28;20279;-60
2023/05/29 08:06:33;;;;;;;20.55;3.95;;;;;;;19.39;65.75;101223.91;8357086;28;20063;-59
2023/05/29 08:10:35;;;;;;;14.63;4.35;;;;;;;19.56;64.99;101235.63;8357595;28;20063;-59
2023/05/29 08:14:37;;;;;;;15.52;3.80;;;;;;;19.61;64.50;101246.94;8356882;28;20037;-60
2023/05/29 08:18:38;;;;;;;10.55;3.85;;;;;;;19.60;64.83;101247.97;8356882;28;20037;-60
2023/05/29 08:22:39;;;;;;;13.20;4.13;;;;;;;19.71;63.93;101244.78;8357410;28;20522;-60
2023/05/29 08:26:39;;;;;;;17.67;4.07;;;;;;;19.64;64.22;101243.81;8366259;28;20049;-59
2023/05/29 08:30:40;;;;;;;15.88;4.03;;;;;;;19.86;64.05;101227.38;8346798;28;20496;-60
2023/05/29 08:34:41;;;;;;;22.70;4.55;;;;;;;20.14;64.70;101225.78;8331165;28;20098;-60
2023/05/29 08:38:41;;;;;;;19.15;4.30;;;;;;;20.00;63.09;101229.31;8342559;28;20464;-61
2023/05/29 08:42:50;;;;;;;18.13;4.53;;;;;;;19.98;63.64;101225.03;8353480;28;20041;-60
2023/05/29 08:46:55;;;;;;;18.42;4.50;;;;;;;19.89;63.77;101231.63;8352673;28;20070;-60
2023/05/29 08:50:58;;;;;;;16.77;3.72;;;;;;;20.40;62.77;101236.38;8352312;28;20047;-59
2023/05/29 08:55:00;;;;;;;20.20;4.70;;;;;;;20.36;62.74;101221.28;8352139;28;20167;-60
2023/05/29 08:59:01;;;;;;;17.65;4.15;;;;;;;20.15;63.50;101226.63;8351687;28;20076;-60
2023/05/29 09:03:03;;;;;;;16.15;3.97;;;;;;;20.64;63.23;101233.34;8351545;28;20075;-60
2023/05/29 09:07:03;;;;;;;14.38;3.63;;;;;;;21.14;60.89;101233.50;8353306;28;20422;-60
2023/05/29 09:11:05;;;;;;;14.18;4.28;;;;;;;21.00;61.33;101231.59;8351158;28;20037;-60
2023/05/29 09:15:22;;;;;;;16.23;4.47;;;;;;;20.89;61.94;101234.81;8351109;28;20647;-60
2023/05/29 09:19:23;;;;;;;16.60;3.80;;;;;;;21.02;61.10;101229.53;8319177;28;20044;-60
2023/05/29 09:23:25;;;;;;;17.30;4.95;;;;;;;21.09;60.61;101233.22;8318516;28;20070;-60
2023/05/29 09:27:26;;;;;;;17.25;4.57;;;;;;;21.44;61.25;101243.41;8318705;28;20124;-59
2023/05/29 09:31:26;;;;;;;16.05;4.65;;;;;;;21.50;60.12;101242.63;8319413;28;20118;-60
2023/05/29 09:35:37;;;;;;;14.57;4.10;;;;;;;21.19;60.02;101233.75;8317736;28;20064;-60
2023/05/29 09:39:47;;;;;;;15.23;4.13;;;;;;;21.18;60.91;101248.56;8318746;28;20121;-60
2023/05/29 09:43:49;;;;;;;19.05;4.80;;;;;;;21.50;59.87;101241.78;8318736;28;20052;-60
2023/05/29 09:47:50;;;;;;;15.27;4.30;;;;;;;21.61;59.25;101233.88;8301530;28;20504;-60
2023/05/29 09:51:54;;;;;;;15.77;4.85;;;;;;;21.82;59.07;101241.31;8297888;28;20041;-60
2023/05/29 09:55:56;;;;;;;15.43;3.50;;;;;;;22.53;58.38;101236.50;8313458;28;20443;-60
2023/05/29 09:59:59;;;;;;;20.98;4.93;;;;;;;22.97;57.40;101239.75;8318826;28;20045;-60
2023/05/29 10:04:00;;;;;;;13.20;3.90;;;;;;;23.68;55.81;101234.81;8317182;28;20336;-60
2023/05/29 10:08:03;;;;;;;18.67;4.05;;;;;;;24.90;53.15;101235.13;8317814;28;20060;-60
2023/05/29 10:12:07;;;;;;;16.52;4.13;;;;;;;24.15;54.02;101240.25;8318058;28;20071;-60
2023/05/29 10:16:12;;;;;;;14.73;4.43;;;;;;;24.29;54.38;101236.41;8316811;28;20067;-59
2023/05/29 10:20:15;;;;;;;14.43;3.72;;;;;;;24.84;52.28;101241.53;8316670;28;20496;-60
2023/05/29 10:24:17;;;;;;;12.45;4.18;;;;;;;25.10;52.51;101235.06;8319211;28;20045;-60
2023/05/29 10:28:18;;;;;;;15.10;3.63;;;;;;;25.73;52.47;101232.25;8323816;28;20367;-60
2023/05/29 10:32:27;;;;;;;13.70;4.30;;;;;;;26.17;49.73;101251.59;8324933;28;20041;-60
2023/05/29 10:36:35;;;;;;;13.07;4.10;;;;;;;25.56;50.59;101257.94;8323791;28;20040;-60
2023/05/29 10:40:36;;;;;;;9.45;3.95;;;;;;;25.66;50.69;101253.63;8324404;28;20077;-60
2023/05/29 10:44:39;;;;;;;12.85;4.32;;;;;;;25.53;50.46;101250.06;8323982;28;20041;-57
2023/05/29 10:48:41;;;;;;;14.93;4.50;;;;;;;26.22;50.14;101234.31;8324846;28;20488;-57
2023/05/29 10:52:46;;;;;;;16.15;3.92;;;;;;;26.40;49.39;101246.31;8322014;28;20618;-60
2023/05/29 10:57:02;;;;;;;11.00;3.72;;;;;;;26.28;49.71;101220.41;8327702;28;20392;-60
2023/05/29 11:01:03;;;;;;;17.48;4.22;;;;;;;26.31;50.33;101225.50;8357028;28;20521;-60
2023/05/29 11:05:25;;;;;;;14.57;3.95;;;;;;;26.41;49.26;101227.78;8355706;28;20420;-60
2023/05/29 11:09:35;;;;;;;14.25;3.72;;;;;;;26.24;50.66;101229.38;8355344;28;20276;-60
2023/05/29 11:13:36;;;;;;;14.50;4.28;;;;;;;26.72;49.15;101228.56;8324186;28;20068;-60
2023/05/29 11:22:15;;;;;;;11.25;3.88;;;;;;;26.28;49.61;101214.84;8350450;27;20390;-59
2023/05/29 11:26:17;;;;;;;8.85;3.45;;;;;;;26.30;49.90;101212.72;8320179;28;20231;-59
2023/05/29 11:30:18;;;;;;;13.50;3.72;;;;;;;26.27;49.52;101196.53;8280095;28;20074;-58
2023/05/29 11:34:21;;;;;;;16.48;3.90;;;;;;;26.47;49.43;101219.38;8312460;28;20589;-59
2023/05/29 11:38:22;;;;;;;14.90;3.80;;;;;;;26.49;49.91;101203.34;8313908;28;20141;-59
2023/05/29 11:42:22;;;;;;;15.18;4.47;;;;;;;27.09;48.19;101206.38;8309013;28;20064;-59
2023/05/29 11:46:23;;;;;;;14.25;3.28;;;;;;;26.79;49.38;101201.59;8313512;28;20442;-59
2023/05/29 11:50:27;;;;;;;14.93;4.03;;;;;;;27.04;49.14;101203.47;8314886;28;20041;-59
2023/05/29 11:54:27;;;;;;;9.25;3.50;;;;;;;27.05;48.76;101196.81;8294967;28;20049;-59
2023/05/29 11:58:29;;;;;;;10.18;3.58;;;;;;;26.63;49.15;101193.03;8308106;28;20073;-59
2023/05/29 12:02:31;;;;;;;18.83;4.82;;;;;;;26.32;49.77;101182.81;8281917;28;20042;-59
2023/05/29 12:06:34;;;;;;;14.63;3.53;;;;;;;25.51;51.88;101172.72;8281448;28;20125;-59
2023/05/29 12:10:34;;;;;;;15.73;3.80;;;;;;;24.52;53.43;101187.91;8303238;28;20556;-59
2023/05/29 12:14:35;;;;;;;12.23;3.53;;;;;;;23.65;55.41;101191.03;8313005;28;20049;-59
2023/05/29 12:18:36;;;;;;;13.27;3.72;;;;;;;23.58;55.05;101192.94;8312686;28;20060;-59
2023/05/29 12:22:38;;;;;;;11.68;3.65;;;;;;;23.60;54.52;101185.31;8296044;28;20548;-59
2023/05/29 12:26:38;;;;;;;10.57;3.22;;;;;;;23.57;55.84;101186.56;8284873;28;20041;-59
2023/05/29 12:30:40;;;;;;;13.25;4.25;;;;;;;23.33;55.53;101178.88;8300187;28;20141;-59
2023/05/29 12:34:41;;;;;;;17.70;3.88;;;;;;;23.33;56.37;101178.88;8287953;28;20045;-59
2023/05/29 12:38:50;;;;;;;9.85;3.13;;;;;;;23.33;56.42;101183.53;8290128;28;20547;-60
2023/05/29 12:42:57;;;;;;;11.77;3.70;;;;;;;23.42;56.56;101187.81;8277365;28;20038;-61
2023/05/29 12:46:58;;;;;;;14.60;3.45;;;;;;;23.30;56.08;101183.94;8301121;28;20042;-61
2023/05/29 12:51:04;;;;;;;8.77;3.25;;;;;;;23.49;55.90;101188.66;8282714;28;20095;-61
2023/05/29 12:55:05;;;;;;;16.33;3.30;;;;;;;23.57;55.91;101186.56;8303772;28;20092;-61
2023/05/29 12:59:08;;;;;;;9.73;3.33;;;;;;;23.45;56.52;101187.38;8290730;28;20137;-62
2023/05/29 13:03:10;;;;;;;14.82;3.35;;;;;;;23.46;56.07;101186.31;8290159;28;20511;-61
2023/05/29 13:07:11;;;;;;;16.60;3.58;;;;;;;23.29;56.66;101198.81;8278241;28;20042;-61
2023/05/29 13:11:11;;;;;;;7.47;3.25;;;;;;;23.29;56.69;101194.13;8274504;28;20108;-61
2023/05/29 13:15:13;;;;;;;14.47;3.60;;;;;;;23.26;54.86;101185.41;8278516;28;20046;-61
2023/05/29 13:19:13;;;;;;;13.05;3.53;;;;;;;23.11;56.10;101197.41;8277218;28;20452;-61
2023/05/29 13:23:14;;;;;;;8.75;3.40;;;;;;;23.26;56.07;101188.19;8288429;28;20073;-61
2023/05/29 13:27:15;;;;;;;13.82;3.83;;;;;;;22.97;56.18;101195.63;8259621;28;20050;-61
2023/05/29 13:31:16;;;;;;;12.63;3.60;;;;;;;22.82;55.64;101186.66;8256848;28;20119;-61
2023/05/29 13:35:16;;;;;;;8.77;3.20;;;;;;;22.82;55.70;101183.91;8255371;28;20041;-61
2023/05/29 13:39:17;;;;;;;17.63;3.75;;;;;;;22.94;55.84;101185.00;8263941;28;20038;-61
2023/05/29 13:43:17;;;;;;;14.45;4.13;;;;;;;23.09;56.43;101188.47;8273614;28;20622;-61
2023/05/29 13:47:18;;;;;;;13.80;3.40;;;;;;;23.19;55.35;101200.00;8262875;28;20054;-59
2023/05/29 13:51:18;;;;;;;10.95;3.20;;;;;;;23.07;55.13;101179.56;8272568;28;20042;-59
2023/05/29 13:55:18;;;;;;;11.83;4.10;;;;;;;23.03;54.76;101200.31;8266786;28;20555;-59
2023/05/29 13:59:19;;;;;;;14.15;3.90;;;;;;;22.84;55.54;101186.47;8288356;28;20288;-59
2023/05/29 14:03:21;;;;;;;9.38;3.05;;;;;;;23.03;55.39;101185.72;8304684;28;20048;-59
2023/05/29 14:07:22;;;;;;;10.25;3.60;;;;;;;23.01;54.98;101191.44;8269088;28;20335;-59
2023/05/29 14:11:23;;;;;;;9.85;4.03;;;;;;;23.00;54.62;101180.59;8274762;28;20468;-59
2023/05/29 14:15:23;;;;;;;13.73;3.58;;;;;;;22.67;55.77;101177.66;8296478;28;20408;-59
2023/05/29 14:19:24;;;;;;;12.55;3.08;;;;;;;23.07;55.43;101178.72;8283757;28;20042;-58
2023/05/29 14:23:24;;;;;;;9.57;3.53;;;;;;;22.86;55.59;101176.91;8292253;28;20094;-61
2023/05/29 14:27:25;;;;;;;11.43;3.70;;;;;;;22.83;55.10;101177.31;8288278;28;20038;-61
2023/05/29 14:31:25;;;;;;;14.13;3.27;;;;;;;22.79;56.16;101170.53;8286538;28;20049;-61
2023/05/29 14:35:25;;;;;;;11.43;3.20;;;;;;;22.77;54.84;101172.63;8286053;28;20654;-60
2023/05/29 14:39:26;;;;;;;15.27;3.25;;;;;;;22.72;55.36;101166.84;8282217;28;20077;-61
2023/05/29 14:43:26;;;;;;;13.15;3.55;;;;;;;22.71;54.95;101176.19;8283383;28;20042;-61
2023/05/29 14:47:27;;;;;;;8.83;3.47;;;;;;;22.70;55.35;101159.84;8284504;28;20135;-60
2023/05/29 14:51:27;;;;;;;11.32;3.08;;;;;;;22.72;55.27;101163.28;8289327;28;20363;-61
2023/05/29 14:55:28;;;;;;;13.80;3.42;;;;;;;22.70;54.90;101171.75;8284733;28;20038;-61
2023/05/29 14:59:28;;;;;;;16.35;3.55;;;;;;;22.56;55.31;101169.94;8284515;28;20088;-61
2023/05/29 15:03:28;;;;;;;12.13;3.78;;;;;;;22.56;55.09;101164.44;8289232;28;20068;-60
2023/05/29 15:07:30;;;;;;;7.40;2.97;;;;;;;22.50;55.18;101162.47;8284130;28;20046;-60
2023/05/29 15:11:31;;;;;;;11.15;3.40;;;;;;;22.50;55.17;101165.25;8284596;28;20050;-61
2023/05/29 15:15:31;;;;;;;6.45;3.45;;;;;;;22.60;55.47;101168.47;8283836;28;20074;-61
2023/05/29 15:19:31;;;;;;;9.80;3.42;;;;;;;22.58;54.81;101161.47;8282067;28;20050;-61
2023/05/29 15:23:34;;;;;;;11.82;3.60;;;;;;;22.45;55.45;101151.16;8257651;28;20400;-61
2023/05/29 15:27:34;;;;;;;13.93;3.22;;;;;;;22.47;54.86;101153.72;8259029;28;20092;-61
2023/05/29 15:31:36;;;;;;;14.50;3.28;;;;;;;22.32;54.49;101145.56;8250788;28;20133;-61
2023/05/29 15:35:37;;;;;;;9.55;2.70;;;;;;;22.20;55.24;101155.44;8264039;28;20311;-61
2023/05/29 15:39:39;;;;;;;7.38;3.30;;;;;;;22.33;54.25;101160.22;8264991;28;20038;-62
2023/05/29 15:43:41;;;;;;;12.00;3.20;;;;;;;22.25;54.70;101166.72;8282022;28;20046;-61
2023/05/29 15:47:41;;;;;;;12.15;3.90;;;;;;;22.27;55.71;101175.66;8258824;28;20409;-61
2023/05/29 15:51:42;;;;;;;12.88;3.33;;;;;;;22.31;55.39;101182.47;8272548;28;20162;-61
2023/05/29 15:55:43;;;;;;;10.65;3.20;;;;;;;22.09;55.88;101183.56;8286555;28;20092;-62
2023/05/29 15:59:44;;;;;;;12.43;3.05;;;;;;;22.13;55.92;101190.38;8284376;28;20184;-61
2023/05/29 16:03:44;;;;;;;9.18;3.45;;;;;;;22.01;56.18;101175.44;8282830;28;20045;-61
2023/05/29 16:07:47;;;;;;;12.25;3.10;;;;;;;21.97;56.06;101179.63;8288955;28;20046;-61
2023/05/29 16:11:48;;;;;;;7.93;3.05;;;;;;;22.02;56.64;101182.63;8290418;28;20477;-61
2023/05/29 16:15:48;;;;;;;14.35;5.05;;;;;;;22.10;56.42;101174.22;8304661;28;20073;-61
2023/05/29 16:19:49;;;;;;;10.38;2.95;;;;;;;21.90;56.50;101166.84;8293413;28;20329;-61
2023/05/29 16:23:56;;;;;;;10.50;4.30;;;;;;;21.90;56.66;101167.72;8316688;28;20041;-61
2023/05/29 16:27:57;;;;;;;7.70;3.40;;;;;;;21.81;57.07;101190.94;8321335;28;20360;-61
2023/05/29 16:31:57;;;;;;;9.52;2.70;;;;;;;21.80;56.66;101189.19;8292304;28;20057;-61
2023/05/29 16:35:57;;;;;;;11.07;3.15;;;;;;;21.87;56.79;101184.63;8311535;28;20065;-61
2023/05/29 16:39:58;;;;;;;9.37;3.40;;;;;;;21.83;56.01;101199.81;8321643;28;20501;-61
2023/05/29 16:43:59;;;;;;;8.50;2.70;;;;;;;21.82;55.83;101189.88;8291221;28;20328;-61
2023/05/29 16:47:59;;;;;;;9.82;3.30;;;;;;;21.83;55.40;101182.47;8289049;28;20499;-61
2023/05/29 16:52:00;;;;;;;7.45;3.00;;;;;;;21.89;56.01;101182.50;8301610;28;20041;-61
2023/05/29 16:56:00;;;;;;;11.05;3.63;;;;;;;21.80;55.61;101189.19;8290570;28;20041;-61
2023/05/29 17:00:01;;;;;;;8.38;3.03;;;;;;;21.87;55.33;101184.63;8254885;28;20046;-61
2023/05/29 17:04:01;;;;;;;11.88;3.30;;;;;;;21.64;54.86;101185.81;8281205;28;20089;-61
2023/05/29 17:08:01;;;;;;;10.32;3.20;;;;;;;21.62;55.64;101180.50;8302448;28;20440;-61
2023/05/29 17:12:02;;;;;;;8.27;3.60;;;;;;;21.82;55.68;101180.75;8271893;28;20041;-61
2023/05/29 17:16:03;;;;;;;8.45;2.90;;;;;;;21.82;54.61;101181.59;8286044;28;20284;-61
2023/05/29 17:20:05;;;;;;;11.13;3.22;;;;;;;21.79;54.54;101176.50;8284948;28;20049;-61
2023/05/29 17:24:06;;;;;;;10.35;2.92;;;;;;;21.66;54.38;101181.84;8317024;28;20047;-61
2023/05/29 17:28:09;;;;;;;9.35;3.05;;;;;;;21.68;54.92;101185.22;8319652;28;20069;-61
2023/05/29 17:32:10;;;;;;;7.45;2.70;;;;;;;21.70;54.69;101194.16;8319140;28;20042;-61
2023/05/29 17:36:12;;;;;;;9.25;3.20;;;;;;;21.68;54.03;101184.41;8319683;28;20129;-59
2023/05/29 17:40:12;;;;;;;7.32;2.65;;;;;;;21.65;53.29;101193.88;8319330;28;20042;-59
2023/05/29 17:44:13;;;;;;;13.10;3.22;;;;;;;21.50;53.09;101186.75;8285481;28;20117;-60
2023/05/29 17:48:13;;;;;;;6.82;2.70;;;;;;;21.43;53.44;101197.66;8285382;28;20508;-60
2023/05/29 17:52:14;;;;;;;10.55;3.80;;;;;;;21.41;52.88;101190.66;8308889;28;20045;-59
2023/05/29 17:56:14;;;;;;;7.67;2.53;;;;;;;21.36;53.26;101196.75;8291353;28;20152;-59
2023/05/29 18:00:15;;;;;;;9.98;3.35;;;;;;;21.40;53.53;101197.22;8286538;28;20296;-59
2023/05/29 18:04:18;;;;;;;10.30;3.10;;;;;;;21.38;53.04;101189.16;8283435;28;20042;-59
2023/05/29 18:08:18;;;;;;;10.30;3.20;;;;;;;21.30;52.65;101203.88;8286242;28;20038;-59
2023/05/29 18:12:19;;;;;;;7.15;3.13;;;;;;;21.18;52.33;101205.41;8286030;28;20549;-59
2023/05/29 18:16:19;;;;;;;9.25;2.67;;;;;;;21.17;52.59;101200.94;8285804;28;20078;-59
2023/05/29 18:20:20;;;;;;;7.13;2.50;;;;;;;21.15;52.39;101202.19;8286007;28;20480;-59
2023/05/29 18:24:20;;;;;;;8.57;2.70;;;;;;;21.04;52.96;101202.66;8317800;28;20034;-59
2023/05/29 18:28:21;;;;;;;6.10;2.75;;;;;;;21.02;52.76;101193.78;8286212;28;20056;-59
2023/05/29 18:32:22;;;;;;;8.73;2.70;;;;;;;20.91;52.27;101189.59;8285236;28;20432;-59
2023/05/29 18:36:22;;;;;;;8.90;2.72;;;;;;;20.90;52.52;101195.28;8284947;28;20042;-59
2023/05/29 18:40:23;;;;;;;8.57;2.50;;;;;;;20.84;52.38;101202.41;8286053;28;20050;-59
2023/05/29 18:44:23;;;;;;;11.73;2.83;;;;;;;20.70;51.84;101199.63;8280425;28;20042;-61